Latest Weather Observations for Orbost

IDV60801

Issued at 9:31 pm EDT Sunday 29 March 2015 (issued every 30 minutes, with the page automatically refreshed every 10 minutes)

About weather observations | Map of weather stations | Latest weather observations for VIC | Other Formats
Station Details ID: 084145 Name: ORBOST Lat: -37.69 Lon: 148.47 Height: 62.65 m
Data from the previous 72 hours. | See also: Recent months at Orbost
Date/Time
EDT
Temp
°C
App
Temp
°C
Dew
Point
Rel
Hum
%
Delta-T
°C
Wind Press
QNH
hPa
Press
MSL
hPa
Rain
since 9 am
mm
Dir
 
Spd
km/h
Gust
km/h
Spd
kts
Gust
kts
29/09:30pm 12.7 12.9 10.6 87 1.1 CALM 0 0 0 0 1024.3 1024.1 0.0
29/09:00pm 13.5 13.7 10.7 83 1.5 CALM 0 2 0 1 1023.9 1023.7 0.0
29/08:30pm 14.3 14.7 11.1 81 1.7 CALM 0 0 0 0 1023.3 1023.2 0.0
29/08:00pm 14.5 14.4 10.9 79 1.9 ESE 2 4 1 2 1022.8 1022.7 0.0
29/07:30pm 15.4 14.9 10.6 73 2.5 ESE 4 4 2 2 1022.3 1022.2 0.0
29/07:00pm 16.3 15.7 10.4 68 3.1 ESE 4 4 2 2 1021.8 1021.7 0.0
29/06:30pm 17.4 16.4 10.3 63 3.8 SSE 6 13 3 7 1021.4 1021.3 0.0
29/06:00pm 18.7 16.8 9.2 54 5.0 S 9 15 5 8 1021.1 1021.0 0.0
29/05:30pm 19.7 18.2 9.0 50 5.6 SSE 7 13 4 7 1020.7 1020.6 0.0
29/05:00pm 20.1 18.2 9.1 49 5.8 SE 9 13 5 7 1020.6 1020.5 0.0
29/04:30pm 20.7 18.9 9.3 48 6.1 SE 9 15 5 8 1020.6 1020.5 0.0
29/04:00pm 21.8 20.1 10.0 47 6.4 SSE 9 17 5 9 1020.5 1020.4 0.0
29/03:30pm 21.4 19.3 9.9 48 6.2 SSE 11 17 6 9 1020.7 1020.6 0.0
29/03:00pm 21.6 19.7 10.4 49 6.1 SSE 11 19 6 10 1020.8 1020.7 0.0
29/02:30pm 22.1 20.8 11.2 50 6.1 SSE 9 17 5 9 1020.9 1020.8 0.0
29/02:00pm 22.3 20.2 6.5 36 8.0 SW 7 15 4 8 1021.1 1021.0 0.0
29/01:30pm 22.2 20.7 9.0 43 7.1 W 7 17 4 9 1021.5 1021.4 0.0
29/01:00pm 21.1 19.2 9.0 46 6.4 W 9 17 5 9 1022.0 1021.9 0.0
29/12:30pm 21.4 20.3 9.9 48 6.2 NW 6 11 3 6 1022.2 1022.1 0.0
29/12:00pm 20.3 19.0 10.1 52 5.5 W 7 11 4 6 1022.7 1022.6 0.0
29/11:30am 19.2 17.8 9.4 53 5.2 WNW 7 11 4 6 1023.0 1022.9 0.0
29/11:00am 18.1 17.3 11.0 63 3.8 WNW 6 7 3 4 1023.0 1022.9 0.0
29/10:30am 16.5 16.0 10.8 69 3.0 WNW 4 7 2 4 1023.4 1023.3 0.0
29/10:00am 14.8 14.2 10.4 75 2.3 WNW 4 6 2 3 1023.5 1023.4 0.0
29/09:30am 13.3 13.3 11.0 86 1.2 NNW 2 4 1 2 1023.5 1023.4 0.0
29/09:00am 11.1 10.4 10.0 93 0.6 NNW 4 4 2 2 1023.3 1023.2 0.2
29/08:30am 9.2 8.9 8.6 96 0.3 CALM 0 0 0 0 1023.0 1022.9 0.2
29/08:00am 8.8 8.4 8.4 97 0.2 CALM 0 2 0 1 1022.3 1022.2 0.0
29/07:30am 7.8 7.2 7.4 97 0.2 CALM 0 4 0 2 1021.9 1021.8 0.0
29/07:00am 8.5 7.7 8.1 97 0.2 NNW 2 4 1 2 1021.7 1021.6 0.0
29/06:30am 8.2 7.3 7.8 97 0.2 NNW 2 4 1 2 1021.3 1021.2 0.0
29/06:00am 8.5 7.7 8.1 97 0.2 NW 2 4 1 2 1020.9 1020.8 0.0
29/05:30am 8.2 7.7 7.8 97 0.2 CALM 0 0 0 0 1020.8 1020.7 0.0
29/05:00am 8.0 7.4 7.6 97 0.2 CALM 0 0 0 0 1020.8 1020.7 0.0
29/04:30am 8.4 7.9 8.0 97 0.2 CALM 0 0 0 0 1020.8 1020.7 0.0
29/04:00am 8.6 7.4 8.0 96 0.3 N 4 6 2 3 1020.8 1020.7 0.0
29/03:30am 8.6 7.4 8.2 97 0.2 NW 4 6 2 3 1021.0 1020.9 0.0
29/03:00am 9.0 8.6 8.4 96 0.3 CALM 0 0 0 0 1021.2 1021.1 0.0
29/02:30am 9.2 8.9 8.6 96 0.3 CALM 0 0 0 0 1021.4 1021.3 0.0
29/02:00am 9.5 9.3 8.9 96 0.3 CALM 0 0 0 0 1021.7 1021.6 0.0
29/01:30am 9.6 9.4 9.0 96 0.3 CALM 0 0 0 0 1022.0 1021.9 0.0
29/01:00am 9.8 9.6 9.2 96 0.3 CALM 0 0 0 0 1022.3 1022.2 0.0
29/12:30am 9.5 9.2 8.7 95 0.4 CALM 0 2 0 1 1022.3 1022.2 0.0
29/12:00am 10.0 9.8 8.9 93 0.5 CALM 0 0 0 0 1022.6 1022.5 0.0
 
Date/Time
EDT
Temp
°C
App
Temp
°C
Dew
Point
Rel
Hum
%
Delta-T
°C
Wind Press
QNH
hPa
Press
MSL
hPa
Rain
since 9 am
mm
Dir
 
Spd
km/h
Gust
km/h
Spd
kts
Gust
kts
28/11:30pm 9.8 9.4 8.2 90 0.8 CALM 0 2 0 1 1022.9 1022.8 0.0
28/11:00pm 11.0 9.9 9.8 92 0.6 NE 6 7 3 4 1023.0 1022.9 0.0
28/10:30pm 11.1 10.4 9.9 92 0.6 NE 4 7 2 4 1023.3 1023.2 0.0
28/10:00pm 10.5 9.9 9.1 91 0.7 ENE 2 4 1 2 1023.4 1023.3 0.0
28/09:30pm 11.8 11.1 10.2 90 0.8 NE 4 6 2 3 1023.5 1023.4 0.0
28/09:00pm 11.9 10.8 10.0 88 1.0 NE 6 6 3 3 1023.2 1023.1 0.0
28/08:30pm 12.2 11.5 10.1 87 1.1 NE 4 6 2 3 1023.0 1022.9 0.0
28/08:00pm 12.7 12.0 10.1 84 1.3 ENE 4 6 2 3 1022.8 1022.7 0.0
28/07:30pm 13.1 12.7 9.7 80 1.7 E 2 4 1 2 1022.6 1022.5 0.0
28/07:00pm 15.2 14.9 10.0 71 2.7 SSE 2 4 1 2 1022.7 1022.6 0.0
28/06:30pm 16.1 15.0 9.8 66 3.3 SSE 6 9 3 5 1022.4 1022.3 0.0
28/06:00pm 16.8 15.1 9.7 63 3.7 S 9 13 5 7 1022.4 1022.3 0.0
28/05:30pm 17.4 15.5 9.1 58 4.3 S 9 15 5 8 1022.3 1022.2 0.0
28/05:00pm 17.8 15.9 8.9 56 4.6 S 9 17 5 9 1022.1 1022.0 0.0
28/04:30pm 18.2 15.5 9.0 55 4.8 SSW 13 19 7 10 1022.4 1022.3 0.0
28/04:00pm 18.5 15.4 8.7 53 5.1 SSW 15 22 8 12 1022.5 1022.4 0.0
28/03:30pm 18.8 16.5 9.0 53 5.1 SW 11 20 6 11 1022.4 1022.3 0.0
28/03:00pm 19.1 16.6 8.1 49 5.7 SW 11 19 6 10 1022.8 1022.7 0.0
28/02:30pm 19.4 17.2 9.3 52 5.3 WSW 11 20 6 11 1023.0 1022.9 0.0
28/02:00pm 19.3 16.7 7.7 47 5.9 SW 11 20 6 11 1023.4 1023.3 0.0
28/01:30pm 17.9 15.6 7.6 51 5.2 SW 9 17 5 9 1023.6 1023.5 0.0
28/01:00pm 17.6 15.7 7.6 52 5.0 WSW 7 15 4 8 1024.0 1023.8 0.0
28/12:30pm 16.8 13.7 7.2 53 4.8 WSW 13 19 7 10 1024.5 1024.3 0.0
28/12:00pm 17.2 15.2 8.6 57 4.4 W 9 15 5 8 1024.9 1024.7 0.0
28/11:30am 16.8 14.0 8.5 58 4.3 WNW 13 20 7 11 1025.0 1024.8 0.0
28/11:00am 17.1 14.4 8.8 58 4.3 W 13 24 7 13 1025.0 1024.8 0.0
28/10:30am 17.1 14.0 9.0 59 4.2 W 15 22 8 12 1025.0 1024.8 0.0
28/10:00am 16.3 13.7 9.3 63 3.6 W 13 22 7 12 1025.1 1024.9 0.0
28/09:30am 15.4 13.0 8.6 64 3.5 WNW 11 19 6 10 1025.0 1024.8 0.0
28/09:00am 14.2 12.1 8.4 68 2.9 NW 9 15 5 8 1024.8 1024.6 0.0
28/08:30am 13.2 11.2 8.5 73 2.4 NW 9 17 5 9 1024.6 1024.4 0.0
28/08:00am 12.1 10.0 8.4 78 1.8 NNW 9 17 5 9 1024.4 1024.2 0.0
28/07:30am 11.7 9.5 8.0 78 1.8 NW 9 17 5 9 1024.1 1023.9 0.0
28/07:00am 12.6 10.1 8.3 75 2.1 NW 11 17 6 9 1023.9 1023.7 0.0
28/06:30am 12.8 10.4 8.5 75 2.1 WNW 11 19 6 10 1023.5 1023.4 0.0
28/06:00am 12.7 10.3 8.6 76 2.0 WNW 11 22 6 12 1023.3 1023.2 0.0
28/05:30am 12.7 10.0 8.8 77 2.0 WNW 13 24 7 13 1022.8 1022.7 0.0
28/05:00am 12.3 9.5 8.4 77 1.9 WNW 13 20 7 11 1022.7 1022.6 0.0
28/04:30am 12.7 9.9 8.4 75 2.1 WNW 13 20 7 11 1022.7 1022.6 0.0
28/04:00am 13.0 10.2 8.5 74 2.2 WNW 13 22 7 12 1022.6 1022.5 0.0
28/03:30am 13.1 10.7 8.8 75 2.2 NW 11 17 6 9 1022.6 1022.5 0.0
28/03:00am 13.2 10.5 8.9 75 2.2 WNW 13 19 7 10 1022.8 1022.7 0.0
28/02:30am 13.1 10.7 8.8 75 2.2 WNW 11 19 6 10 1022.8 1022.7 0.0
28/02:00am 13.2 10.9 8.9 75 2.2 WNW 11 17 6 9 1022.7 1022.6 0.0
28/01:30am 13.1 10.0 8.8 75 2.2 W 15 24 8 13 1022.6 1022.5 0.0
28/01:00am 13.3 10.2 9.0 75 2.2 W 15 28 8 15 1022.5 1022.4 0.0
28/12:30am 13.2 10.2 9.1 76 2.1 WNW 15 22 8 12 1022.4 1022.3 0.0
28/12:00am 13.3 10.3 9.2 76 2.1 W 15 28 8 15 1022.5 1022.4 0.0
 
Date/Time
EDT
Temp
°C
App
Temp
°C
Dew
Point
Rel
Hum
%
Delta-T
°C
Wind Press
QNH
hPa
Press
MSL
hPa
Rain
since 9 am
mm
Dir
 
Spd
km/h
Gust
km/h
Spd
kts
Gust
kts
27/11:30pm 13.4 10.4 9.3 76 2.1 W 15 26 8 14 1022.3 1022.2 0.0
27/11:00pm 13.3 9.9 9.2 76 2.1 W 17 24 9 13 1022.3 1022.2 0.0
27/10:30pm 13.4 10.4 9.3 76 2.1 WNW 15 24 8 13 1022.2 1022.1 0.0
27/10:00pm 13.4 10.7 9.1 75 2.2 W 13 20 7 11 1022.0 1021.9 0.0
27/09:30pm 13.4 10.7 8.9 74 2.3 WNW 13 26 7 14 1021.9 1021.8 0.0
27/09:00pm 13.9 10.4 8.9 72 2.5 W 17 35 9 19 1021.7 1021.6 0.0
27/08:30pm 14.2 10.3 8.8 70 2.7 W 19 33 10 18 1021.3 1021.2 0.0
27/08:00pm 14.8 11.0 9.0 68 3.0 W 19 32 10 17 1020.9 1020.8 0.0
27/07:30pm 15.0 11.2 9.1 68 3.0 W 19 33 10 18 1020.4 1020.3 0.0
27/07:00pm 15.6 11.5 8.8 64 3.5 W 20 43 11 23 1020.1 1020.0 0.0
27/06:30pm 16.1 10.8 8.6 61 3.8 W 26 46 14 25 1019.5 1019.4 0.0
27/06:07pm 16.6 11.0 8.6 59 4.1 W 28 54 15 29 1019.2 1019.1 0.0
27/06:00pm 16.7 12.2 8.7 59 4.1 W 22 37 12 20 1019.2 1019.1 0.0
27/05:35pm 16.8 11.1 8.5 58 4.3 W 28 48 15 26 1018.7 1018.6 0.0
27/05:30pm 16.9 10.9 8.6 58 4.3 W 30 48 16 26 1018.6 1018.5 0.0
27/05:00pm 17.1 11.4 8.5 57 4.4 W 28 46 15 25 1018.2 1018.1 0.0
27/04:30pm 17.4 11.4 8.8 57 4.5 W 30 44 16 24 1017.8 1017.7 0.0
27/04:00pm 16.9 12.2 9.3 61 4.0 WNW 24 39 13 21 1018.0 1017.9 0.0
27/03:30pm 16.6 11.9 9.1 61 3.9 WNW 24 43 13 23 1018.0 1017.9 0.0
27/03:00pm 17.1 12.3 9.0 59 4.2 W 24 39 13 21 1017.9 1017.8 0.0
27/02:30pm 16.2 11.8 8.9 62 3.8 WNW 22 35 12 19 1017.7 1017.6 0.0
27/02:00pm 16.0 13.2 10.1 68 3.1 NW 15 26 8 14 1017.9 1017.8 0.0
27/01:30pm 15.4 12.2 10.0 70 2.8 WNW 17 24 9 13 1018.3 1018.2 0.0
27/01:00pm 15.2 11.8 10.6 74 2.4 W 19 30 10 16 1018.6 1018.5 0.0
27/12:40pm 15.4 9.9 9.1 66 3.2 WNW 28 52 15 28 1018.6 1018.5 0.0
27/12:30pm 16.6 11.5 9.3 62 3.8 W 26 41 14 22 1018.6 1018.5 0.0
27/12:00pm 16.3 11.9 9.0 62 3.8 WNW 22 39 12 21 1018.7 1018.6 0.0
27/11:30am 16.0 9.2 7.7 58 4.2 WNW 33 52 18 28 1018.5 1018.4 0.0
27/11:00am 16.0 10.5 9.0 63 3.6 WNW 28 54 15 29 1018.1 1018.0 0.0
27/10:52am 14.7 9.0 8.4 66 3.2 WNW 28 54 15 29 1018.3 1018.2 0.0
27/10:30am 16.1 11.5 6.5 53 4.7 WNW 20 35 11 19 1017.7 1017.6 0.0
27/10:00am 16.4 11.0 6.5 52 4.9 WNW 24 39 13 21 1017.4 1017.3 0.0
27/09:30am 16.4 12.5 7.3 55 4.5 WNW 17 28 9 15 1017.2 1017.1 0.0
27/09:00am 15.2 13.0 7.7 61 3.7 NW 9 17 5 9 1017.1 1017.0 0.0
27/08:30am 13.6 11.4 7.8 68 2.9 WNW 9 15 5 8 1017.2 1017.1 0.0
27/08:00am 13.2 10.5 7.4 68 2.8 W 11 17 6 9 1017.0 1016.9 0.0
27/07:30am 12.7 10.2 6.7 67 2.9 WNW 9 15 5 8 1016.6 1016.5 0.0
27/07:00am 13.2 11.1 6.5 64 3.2 WNW 7 11 4 6 1016.3 1016.2 0.0
27/06:30am 13.9 10.5 6.0 59 3.8 WNW 13 20 7 11 1016.2 1016.1 0.0
27/06:00am 14.5 11.0 5.3 54 4.3 WNW 13 26 7 14 1015.9 1015.8 0.0
27/05:30am 14.8 11.2 4.8 51 4.7 NW 13 22 7 12 1015.4 1015.3 0.0
27/05:00am 15.1 11.0 4.2 48 5.0 NW 15 24 8 13 1015.3 1015.1 0.0
27/04:30am 15.1 10.9 3.6 46 5.3 NW 15 26 8 14 1015.3 1015.1 0.0
27/04:00am 14.8 11.3 3.6 47 5.1 NW 11 22 6 12 1015.3 1015.1 0.0
27/03:30am 14.9 10.6 3.4 46 5.2 NW 15 22 8 12 1015.4 1015.3 0.0
27/03:00am 14.6 10.6 2.8 45 5.3 NW 13 20 7 11 1015.6 1015.5 0.0
27/02:30am 14.3 9.9 2.5 45 5.2 NNW 15 20 8 11 1015.8 1015.7 0.0
27/02:00am 13.5 9.7 1.8 45 5.1 NNW 11 17 6 9 1016.0 1015.9 0.0
27/01:30am 14.3 10.9 1.6 42 5.5 NNW 9 15 5 8 1016.2 1016.1 0.0
27/01:00am 13.7 10.2 1.4 43 5.3 NNW 9 13 5 7 1016.2 1016.1 0.0
27/12:30am 13.3 9.4 1.0 43 5.2 NNW 11 17 6 9 1016.1 1016.0 0.0
27/12:00am 12.7 8.8 1.1 45 4.9 NNW 11 19 6 10 1016.2 1016.1 0.0
 
Date/Time
EDT
Temp
°C
App
Temp
°C
Dew
Point
Rel
Hum
%
Delta-T
°C
Wind Press
QNH
hPa
Press
MSL
hPa
Rain
since 9 am
mm
Dir
 
Spd
km/h
Gust
km/h
Spd
kts
Gust
kts
26/11:30pm 12.1 8.7 1.7 49 4.4 N 9 15 5 8 1016.2 1016.1 0.0
26/11:00pm 12.5 9.7 1.8 48 4.6 N 6 7 3 4 1016.5 1016.4 0.0
26/10:30pm 12.7 9.7 1.1 45 4.9 ENE 6 9 3 5 1016.5 1016.4 0.0
26/10:00pm 14.1 10.3 -0.4 37 6.0 NNW 9 13 5 7 1016.4 1016.3 0.0

Other Formats:

Comma delimited format used in spreadsheet applications
http://www.bom.gov.au/fwo/IDV60801/IDV60801.95918.axf

JavaScript Object Notation format (JSON) in row-major order
http://www.bom.gov.au/fwo/IDV60801/IDV60801.95918.json